sensor_id;sensor_type;location;lat;lon;timestamp;P1;durP1;ratioP1;P2;durP2;ratioP2
48006;SDS011;33771;48.180;11.400;2023-12-20T00:02:09;4.70;;;2.87;;
48006;SDS011;33771;48.180;11.400;2023-12-20T00:04:35;6.63;;;3.10;;
48006;SDS011;33771;48.180;11.400;2023-12-20T00:07:00;4.70;;;2.90;;
48006;SDS011;33771;48.180;11.400;2023-12-20T00:09:26;5.47;;;3.13;;
48006;SDS011;33771;48.180;11.400;2023-12-20T00:11:52;3.73;;;2.67;;
48006;SDS011;33771;48.180;11.400;2023-12-20T00:14:17;4.60;;;2.97;;
48006;SDS011;33771;48.180;11.400;2023-12-20T00:16:43;4.53;;;3.00;;
48006;SDS011;33771;48.180;11.400;2023-12-20T00:19:08;4.37;;;2.90;;
48006;SDS011;33771;48.180;11.400;2023-12-20T00:21:34;4.93;;;2.70;;
48006;SDS011;33771;48.180;11.400;2023-12-20T00:23:59;4.23;;;2.60;;
48006;SDS011;33771;48.180;11.400;2023-12-20T00:26:25;5.57;;;2.90;;
48006;SDS011;33771;48.180;11.400;2023-12-20T00:28:51;6.27;;;3.30;;
48006;SDS011;33771;48.180;11.400;2023-12-20T00:31:16;3.53;;;2.33;;
48006;SDS011;33771;48.180;11.400;2023-12-20T00:33:42;4.63;;;3.00;;
48006;SDS011;33771;48.180;11.400;2023-12-20T00:36:08;5.83;;;3.33;;
48006;SDS011;33771;48.180;11.400;2023-12-20T00:38:34;4.47;;;2.67;;
48006;SDS011;33771;48.180;11.400;2023-12-20T00:41:00;5.57;;;3.13;;
48006;SDS011;33771;48.180;11.400;2023-12-20T00:43:26;5.80;;;3.03;;
48006;SDS011;33771;48.180;11.400;2023-12-20T00:45:51;3.87;;;2.70;;
48006;SDS011;33771;48.180;11.400;2023-12-20T00:48:17;5.00;;;2.50;;
48006;SDS011;33771;48.180;11.400;2023-12-20T00:50:42;4.70;;;2.40;;
48006;SDS011;33771;48.180;11.400;2023-12-20T00:53:08;3.47;;;2.30;;
48006;SDS011;33771;48.180;11.400;2023-12-20T00:55:34;4.53;;;2.40;;
48006;SDS011;33771;48.180;11.400;2023-12-20T00:57:59;3.30;;;2.10;;
48006;SDS011;33771;48.180;11.400;2023-12-20T01:00:25;3.50;;;2.20;;
48006;SDS011;33771;48.180;11.400;2023-12-20T01:02:50;4.50;;;2.30;;
48006;SDS011;33771;48.180;11.400;2023-12-20T01:05:16;3.50;;;2.50;;
48006;SDS011;33771;48.180;11.400;2023-12-20T01:07:42;3.50;;;2.10;;
48006;SDS011;33771;48.180;11.400;2023-12-20T01:10:08;3.37;;;2.10;;
48006;SDS011;33771;48.180;11.400;2023-12-20T01:12:35;3.27;;;1.77;;
48006;SDS011;33771;48.180;11.400;2023-12-20T01:15:01;4.10;;;2.00;;
48006;SDS011;33771;48.180;11.400;2023-12-20T01:17:27;3.00;;;2.00;;
48006;SDS011;33771;48.180;11.400;2023-12-20T01:19:52;2.93;;;2.03;;
48006;SDS011;33771;48.180;11.400;2023-12-20T01:22:18;2.70;;;1.80;;
48006;SDS011;33771;48.180;11.400;2023-12-20T01:24:44;3.13;;;1.77;;
48006;SDS011;33771;48.180;11.400;2023-12-20T01:27:09;3.47;;;2.17;;
48006;SDS011;33771;48.180;11.400;2023-12-20T01:29:35;3.60;;;2.07;;
48006;SDS011;33771;48.180;11.400;2023-12-20T01:32:00;2.57;;;1.60;;
48006;SDS011;33771;48.180;11.400;2023-12-20T01:34:26;2.87;;;1.87;;
48006;SDS011;33771;48.180;11.400;2023-12-20T01:36:51;3.50;;;1.70;;
48006;SDS011;33771;48.180;11.400;2023-12-20T01:39:17;3.50;;;1.97;;
48006;SDS011;33771;48.180;11.400;2023-12-20T01:41:43;2.97;;;1.57;;
48006;SDS011;33771;48.180;11.400;2023-12-20T01:44:08;4.07;;;2.03;;
48006;SDS011;33771;48.180;11.400;2023-12-20T01:46:34;3.27;;;2.43;;
48006;SDS011;33771;48.180;11.400;2023-12-20T01:48:59;2.37;;;1.67;;
48006;SDS011;33771;48.180;11.400;2023-12-20T01:51:25;3.37;;;1.90;;
48006;SDS011;33771;48.180;11.400;2023-12-20T01:53:52;2.10;;;1.70;;
48006;SDS011;33771;48.180;11.400;2023-12-20T01:56:21;2.93;;;1.70;;
48006;SDS011;33771;48.180;11.400;2023-12-20T01:58:47;2.80;;;1.80;;
48006;SDS011;33771;48.180;11.400;2023-12-20T02:01:13;3.03;;;1.50;;
48006;SDS011;33771;48.180;11.400;2023-12-20T02:03:42;3.20;;;1.73;;
48006;SDS011;33771;48.180;11.400;2023-12-20T02:06:08;2.00;;;1.57;;
48006;SDS011;33771;48.180;11.400;2023-12-20T02:08:34;2.43;;;1.60;;
48006;SDS011;33771;48.180;11.400;2023-12-20T02:11:00;3.20;;;1.80;;
48006;SDS011;33771;48.180;11.400;2023-12-20T02:13:26;2.13;;;1.50;;
48006;SDS011;33771;48.180;11.400;2023-12-20T02:15:52;1.87;;;1.30;;
48006;SDS011;33771;48.180;11.400;2023-12-20T02:18:19;3.23;;;1.60;;
48006;SDS011;33771;48.180;11.400;2023-12-20T02:20:44;2.50;;;1.40;;
48006;SDS011;33771;48.180;11.400;2023-12-20T02:23:10;2.07;;;1.40;;
48006;SDS011;33771;48.180;11.400;2023-12-20T02:25:35;2.00;;;1.40;;
48006;SDS011;33771;48.180;11.400;2023-12-20T02:28:02;2.47;;;1.90;;
48006;SDS011;33771;48.180;11.400;2023-12-20T02:30:28;3.20;;;1.53;;
48006;SDS011;33771;48.180;11.400;2023-12-20T02:32:54;2.87;;;1.30;;
48006;SDS011;33771;48.180;11.400;2023-12-20T02:35:20;1.90;;;1.37;;
48006;SDS011;33771;48.180;11.400;2023-12-20T02:37:46;2.40;;;1.60;;
48006;SDS011;33771;48.180;11.400;2023-12-20T02:40:11;2.40;;;1.73;;
48006;SDS011;33771;48.180;11.400;2023-12-20T02:42:37;2.93;;;1.40;;
48006;SDS011;33771;48.180;11.400;2023-12-20T02:45:02;1.50;;;1.30;;
48006;SDS011;33771;48.180;11.400;2023-12-20T02:47:28;2.07;;;1.30;;
48006;SDS011;33771;48.180;11.400;2023-12-20T02:49:55;1.83;;;1.23;;
48006;SDS011;33771;48.180;11.400;2023-12-20T02:52:21;1.73;;;1.10;;
48006;SDS011;33771;48.180;11.400;2023-12-20T02:54:48;1.60;;;1.27;;
48006;SDS011;33771;48.180;11.400;2023-12-20T02:57:13;1.73;;;1.10;;
48006;SDS011;33771;48.180;11.400;2023-12-20T02:59:39;2.20;;;1.13;;
48006;SDS011;33771;48.180;11.400;2023-12-20T03:02:04;1.27;;;1.00;;
48006;SDS011;33771;48.180;11.400;2023-12-20T03:04:30;1.67;;;0.93;;
48006;SDS011;33771;48.180;11.400;2023-12-20T03:06:55;1.80;;;1.03;;
48006;SDS011;33771;48.180;11.400;2023-12-20T03:09:21;1.20;;;0.90;;
48006;SDS011;33771;48.180;11.400;2023-12-20T03:11:46;1.23;;;0.90;;
48006;SDS011;33771;48.180;11.400;2023-12-20T03:14:12;1.10;;;1.00;;
48006;SDS011;33771;48.180;11.400;2023-12-20T03:16:37;1.07;;;0.90;;
48006;SDS011;33771;48.180;11.400;2023-12-20T03:19:03;1.87;;;1.00;;
48006;SDS011;33771;48.180;11.400;2023-12-20T03:21:28;1.27;;;0.90;;
48006;SDS011;33771;48.180;11.400;2023-12-20T03:23:54;1.30;;;1.10;;
48006;SDS011;33771;48.180;11.400;2023-12-20T03:26:20;1.23;;;1.10;;
48006;SDS011;33771;48.180;11.400;2023-12-20T03:28:47;1.30;;;1.00;;
48006;SDS011;33771;48.180;11.400;2023-12-20T03:31:13;1.43;;;1.03;;
48006;SDS011;33771;48.180;11.400;2023-12-20T03:33:39;1.50;;;1.20;;
48006;SDS011;33771;48.180;11.400;2023-12-20T03:36:04;2.97;;;1.20;;
48006;SDS011;33771;48.180;11.400;2023-12-20T03:38:30;1.57;;;1.13;;
48006;SDS011;33771;48.180;11.400;2023-12-20T03:40:55;1.77;;;1.17;;
48006;SDS011;33771;48.180;11.400;2023-12-20T03:43:21;1.30;;;1.10;;
48006;SDS011;33771;48.180;11.400;2023-12-20T03:45:46;1.70;;;1.27;;
48006;SDS011;33771;48.180;11.400;2023-12-20T03:48:12;1.10;;;1.00;;
48006;SDS011;33771;48.180;11.400;2023-12-20T03:50:38;1.50;;;1.27;;
48006;SDS011;33771;48.180;11.400;2023-12-20T03:53:03;1.77;;;1.30;;
48006;SDS011;33771;48.180;11.400;2023-12-20T03:55:29;1.33;;;1.03;;
48006;SDS011;33771;48.180;11.400;2023-12-20T03:57:54;1.57;;;1.30;;
48006;SDS011;33771;48.180;11.400;2023-12-20T04:00:20;1.77;;;1.20;;
48006;SDS011;33771;48.180;11.400;2023-12-20T04:02:45;2.27;;;1.30;;
48006;SDS011;33771;48.180;11.400;2023-12-20T04:05:11;2.43;;;1.70;;
48006;SDS011;33771;48.180;11.400;2023-12-20T04:07:36;1.37;;;1.13;;
48006;SDS011;33771;48.180;11.400;2023-12-20T04:10:02;2.20;;;1.60;;
48006;SDS011;33771;48.180;11.400;2023-12-20T04:12:29;1.20;;;1.10;;
48006;SDS011;33771;48.180;11.400;2023-12-20T04:14:54;2.63;;;1.67;;
48006;SDS011;33771;48.180;11.400;2023-12-20T04:17:20;1.80;;;1.40;;
48006;SDS011;33771;48.180;11.400;2023-12-20T04:19:47;1.73;;;1.37;;
48006;SDS011;33771;48.180;11.400;2023-12-20T04:22:17;1.90;;;1.50;;
48006;SDS011;33771;48.180;11.400;2023-12-20T04:24:43;3.63;;;1.80;;
48006;SDS011;33771;48.180;11.400;2023-12-20T04:27:08;3.07;;;1.60;;
48006;SDS011;33771;48.180;11.400;2023-12-20T04:29:34;2.43;;;1.80;;
48006;SDS011;33771;48.180;11.400;2023-12-20T04:31:59;2.63;;;1.67;;
48006;SDS011;33771;48.180;11.400;2023-12-20T04:34:25;1.90;;;1.60;;
48006;SDS011;33771;48.180;11.400;2023-12-20T04:36:51;2.07;;;1.53;;
48006;SDS011;33771;48.180;11.400;2023-12-20T04:39:16;2.77;;;1.70;;
48006;SDS011;33771;48.180;11.400;2023-12-20T04:41:42;2.70;;;1.90;;
48006;SDS011;33771;48.180;11.400;2023-12-20T04:44:07;2.10;;;1.80;;
48006;SDS011;33771;48.180;11.400;2023-12-20T04:46:33;2.77;;;1.70;;
48006;SDS011;33771;48.180;11.400;2023-12-20T04:48:58;2.70;;;1.90;;
48006;SDS011;33771;48.180;11.400;2023-12-20T04:51:24;3.30;;;2.17;;
48006;SDS011;33771;48.180;11.400;2023-12-20T04:53:49;3.63;;;2.20;;
48006;SDS011;33771;48.180;11.400;2023-12-20T04:56:15;4.90;;;2.93;;
48006;SDS011;33771;48.180;11.400;2023-12-20T04:58:41;3.90;;;2.60;;
48006;SDS011;33771;48.180;11.400;2023-12-20T05:01:07;6.20;;;2.97;;
48006;SDS011;33771;48.180;11.400;2023-12-20T05:03:34;3.73;;;3.03;;
48006;SDS011;33771;48.180;11.400;2023-12-20T05:05:59;4.23;;;3.00;;
48006;SDS011;33771;48.180;11.400;2023-12-20T05:08:25;4.33;;;3.20;;
48006;SDS011;33771;48.180;11.400;2023-12-20T05:10:52;5.20;;;3.43;;
48006;SDS011;33771;48.180;11.400;2023-12-20T05:13:19;6.13;;;3.80;;
48006;SDS011;33771;48.180;11.400;2023-12-20T05:15:45;5.40;;;3.53;;
48006;SDS011;33771;48.180;11.400;2023-12-20T05:18:10;5.40;;;3.90;;
48006;SDS011;33771;48.180;11.400;2023-12-20T05:20:36;8.77;;;3.97;;
48006;SDS011;33771;48.180;11.400;2023-12-20T05:23:02;5.20;;;3.77;;
48006;SDS011;33771;48.180;11.400;2023-12-20T05:25:27;4.80;;;3.77;;
48006;SDS011;33771;48.180;11.400;2023-12-20T05:27:53;4.87;;;3.80;;
48006;SDS011;33771;48.180;11.400;2023-12-20T05:30:18;5.13;;;3.67;;
48006;SDS011;33771;48.180;11.400;2023-12-20T05:32:44;5.40;;;4.00;;
48006;SDS011;33771;48.180;11.400;2023-12-20T05:35:09;5.90;;;3.40;;
48006;SDS011;33771;48.180;11.400;2023-12-20T05:37:35;6.13;;;3.70;;
48006;SDS011;33771;48.180;11.400;2023-12-20T05:40:00;5.00;;;3.47;;
48006;SDS011;33771;48.180;11.400;2023-12-20T05:42:26;4.90;;;3.60;;
48006;SDS011;33771;48.180;11.400;2023-12-20T05:44:52;5.00;;;3.43;;
48006;SDS011;33771;48.180;11.400;2023-12-20T05:47:17;4.37;;;3.50;;
48006;SDS011;33771;48.180;11.400;2023-12-20T05:49:43;4.60;;;3.30;;
48006;SDS011;33771;48.180;11.400;2023-12-20T05:52:10;6.10;;;3.60;;
48006;SDS011;33771;48.180;11.400;2023-12-20T05:54:35;4.83;;;3.40;;
48006;SDS011;33771;48.180;11.400;2023-12-20T05:57:01;4.53;;;3.60;;
48006;SDS011;33771;48.180;11.400;2023-12-20T05:59:26;4.27;;;3.30;;
48006;SDS011;33771;48.180;11.400;2023-12-20T06:01:52;3.40;;;2.80;;
48006;SDS011;33771;48.180;11.400;2023-12-20T06:04:17;4.00;;;3.37;;
48006;SDS011;33771;48.180;11.400;2023-12-20T06:06:43;4.23;;;3.40;;
48006;SDS011;33771;48.180;11.400;2023-12-20T06:09:09;5.67;;;3.90;;
48006;SDS011;33771;48.180;11.400;2023-12-20T06:11:35;6.00;;;3.67;;
48006;SDS011;33771;48.180;11.400;2023-12-20T06:14:00;4.97;;;3.17;;
48006;SDS011;33771;48.180;11.400;2023-12-20T06:16:26;5.33;;;3.63;;
48006;SDS011;33771;48.180;11.400;2023-12-20T06:18:52;5.10;;;3.83;;
48006;SDS011;33771;48.180;11.400;2023-12-20T06:21:20;4.37;;;3.40;;
48006;SDS011;33771;48.180;11.400;2023-12-20T06:23:45;7.27;;;3.50;;
48006;SDS011;33771;48.180;11.400;2023-12-20T06:26:11;4.20;;;3.33;;
48006;SDS011;33771;48.180;11.400;2023-12-20T06:28:36;4.37;;;3.20;;
48006;SDS011;33771;48.180;11.400;2023-12-20T06:31:02;4.60;;;3.13;;
48006;SDS011;33771;48.180;11.400;2023-12-20T06:33:28;5.07;;;3.40;;
48006;SDS011;33771;48.180;11.400;2023-12-20T06:35:56;3.80;;;2.90;;
48006;SDS011;33771;48.180;11.400;2023-12-20T06:38:21;5.03;;;3.77;;
48006;SDS011;33771;48.180;11.400;2023-12-20T06:40:47;4.00;;;3.30;;
48006;SDS011;33771;48.180;11.400;2023-12-20T06:43:12;4.77;;;3.60;;
48006;SDS011;33771;48.180;11.400;2023-12-20T06:45:38;4.63;;;3.47;;
48006;SDS011;33771;48.180;11.400;2023-12-20T06:48:04;5.30;;;3.30;;
48006;SDS011;33771;48.180;11.400;2023-12-20T06:50:30;5.00;;;3.00;;
48006;SDS011;33771;48.180;11.400;2023-12-20T06:52:56;4.83;;;3.10;;
48006;SDS011;33771;48.180;11.400;2023-12-20T06:55:21;4.23;;;3.23;;
48006;SDS011;33771;48.180;11.400;2023-12-20T06:57:48;3.90;;;2.90;;
48006;SDS011;33771;48.180;11.400;2023-12-20T07:00:13;3.47;;;2.60;;
48006;SDS011;33771;48.180;11.400;2023-12-20T07:02:39;3.40;;;2.50;;
48006;SDS011;33771;48.180;11.400;2023-12-20T07:05:05;5.27;;;2.80;;
48006;SDS011;33771;48.180;11.400;2023-12-20T07:07:31;4.03;;;2.70;;
48006;SDS011;33771;48.180;11.400;2023-12-20T07:09:56;3.90;;;2.70;;
48006;SDS011;33771;48.180;11.400;2023-12-20T07:12:22;4.37;;;2.53;;
48006;SDS011;33771;48.180;11.400;2023-12-20T07:14:48;3.90;;;2.50;;
48006;SDS011;33771;48.180;11.400;2023-12-20T07:17:13;3.53;;;2.40;;
48006;SDS011;33771;48.180;11.400;2023-12-20T07:19:40;4.67;;;2.63;;
48006;SDS011;33771;48.180;11.400;2023-12-20T07:22:06;2.67;;;2.20;;
48006;SDS011;33771;48.180;11.400;2023-12-20T07:24:32;4.43;;;2.10;;
48006;SDS011;33771;48.180;11.400;2023-12-20T07:26:58;3.60;;;2.20;;
48006;SDS011;33771;48.180;11.400;2023-12-20T07:29:25;2.87;;;2.10;;
48006;SDS011;33771;48.180;11.400;2023-12-20T07:31:53;2.80;;;1.90;;
48006;SDS011;33771;48.180;11.400;2023-12-20T07:34:22;2.37;;;1.80;;
48006;SDS011;33771;48.180;11.400;2023-12-20T07:36:48;2.73;;;1.97;;
48006;SDS011;33771;48.180;11.400;2023-12-20T07:39:14;3.63;;;1.83;;
48006;SDS011;33771;48.180;11.400;2023-12-20T07:41:39;2.10;;;1.70;;
48006;SDS011;33771;48.180;11.400;2023-12-20T07:44:05;1.70;;;1.50;;
48006;SDS011;33771;48.180;11.400;2023-12-20T07:46:31;2.57;;;1.77;;
48006;SDS011;33771;48.180;11.400;2023-12-20T07:48:57;2.47;;;1.60;;
48006;SDS011;33771;48.180;11.400;2023-12-20T07:51:22;1.90;;;1.47;;
48006;SDS011;33771;48.180;11.400;2023-12-20T07:53:49;2.10;;;1.63;;
48006;SDS011;33771;48.180;11.400;2023-12-20T07:56:15;2.33;;;1.53;;
48006;SDS011;33771;48.180;11.400;2023-12-20T07:58:42;2.30;;;1.70;;
48006;SDS011;33771;48.180;11.400;2023-12-20T08:01:07;2.13;;;1.40;;
48006;SDS011;33771;48.180;11.400;2023-12-20T08:03:33;2.83;;;1.50;;
48006;SDS011;33771;48.180;11.400;2023-12-20T08:05:58;2.23;;;1.40;;
48006;SDS011;33771;48.180;11.400;2023-12-20T08:08:24;1.70;;;1.27;;
48006;SDS011;33771;48.180;11.400;2023-12-20T08:10:50;1.60;;;1.30;;
48006;SDS011;33771;48.180;11.400;2023-12-20T08:13:15;1.27;;;1.10;;
48006;SDS011;33771;48.180;11.400;2023-12-20T08:15:41;4.10;;;1.90;;
48006;SDS011;33771;48.180;11.400;2023-12-20T08:18:07;1.50;;;1.30;;
48006;SDS011;33771;48.180;11.400;2023-12-20T08:20:32;1.90;;;1.40;;
48006;SDS011;33771;48.180;11.400;2023-12-20T08:22:58;3.03;;;1.30;;
48006;SDS011;33771;48.180;11.400;2023-12-20T08:25:23;1.77;;;1.63;;
48006;SDS011;33771;48.180;11.400;2023-12-20T08:27:49;1.83;;;1.40;;
48006;SDS011;33771;48.180;11.400;2023-12-20T08:30:14;2.97;;;1.60;;
48006;SDS011;33771;48.180;11.400;2023-12-20T08:32:42;3.50;;;1.90;;
48006;SDS011;33771;48.180;11.400;2023-12-20T08:35:08;3.53;;;1.87;;
48006;SDS011;33771;48.180;11.400;2023-12-20T08:37:34;4.30;;;2.10;;
48006;SDS011;33771;48.180;11.400;2023-12-20T08:40:00;4.77;;;2.50;;
48006;SDS011;33771;48.180;11.400;2023-12-20T08:42:26;3.70;;;2.30;;
48006;SDS011;33771;48.180;11.400;2023-12-20T08:44:56;4.87;;;2.10;;
48006;SDS011;33771;48.180;11.400;2023-12-20T08:47:22;4.17;;;2.10;;
48006;SDS011;33771;48.180;11.400;2023-12-20T08:49:48;3.27;;;2.00;;
48006;SDS011;33771;48.180;11.400;2023-12-20T08:52:13;3.87;;;1.77;;
48006;SDS011;33771;48.180;11.400;2023-12-20T08:54:39;2.77;;;1.97;;
48006;SDS011;33771;48.180;11.400;2023-12-20T08:57:04;2.73;;;1.90;;
48006;SDS011;33771;48.180;11.400;2023-12-20T08:59:31;2.67;;;1.90;;
48006;SDS011;33771;48.180;11.400;2023-12-20T09:01:57;2.17;;;1.60;;
48006;SDS011;33771;48.180;11.400;2023-12-20T09:04:23;2.87;;;1.90;;
48006;SDS011;33771;48.180;11.400;2023-12-20T09:06:48;2.13;;;1.60;;
48006;SDS011;33771;48.180;11.400;2023-12-20T09:09:14;1.83;;;1.37;;
48006;SDS011;33771;48.180;11.400;2023-12-20T09:11:40;2.73;;;1.43;;
48006;SDS011;33771;48.180;11.400;2023-12-20T09:14:07;1.90;;;1.60;;
48006;SDS011;33771;48.180;11.400;2023-12-20T09:16:32;3.73;;;1.90;;
48006;SDS011;33771;48.180;11.400;2023-12-20T09:18:58;2.47;;;1.60;;
48006;SDS011;33771;48.180;11.400;2023-12-20T09:21:24;2.43;;;2.00;;
48006;SDS011;33771;48.180;11.400;2023-12-20T09:23:49;2.53;;;1.63;;
48006;SDS011;33771;48.180;11.400;2023-12-20T09:26:15;1.53;;;1.30;;
48006;SDS011;33771;48.180;11.400;2023-12-20T09:28:41;5.33;;;2.70;;
48006;SDS011;33771;48.180;11.400;2023-12-20T09:31:06;3.87;;;1.60;;
48006;SDS011;33771;48.180;11.400;2023-12-20T09:33:32;2.53;;;1.73;;
48006;SDS011;33771;48.180;11.400;2023-12-20T09:35:58;2.53;;;1.87;;
48006;SDS011;33771;48.180;11.400;2023-12-20T09:38:24;3.23;;;1.70;;
48006;SDS011;33771;48.180;11.400;2023-12-20T09:40:49;2.60;;;1.67;;
48006;SDS011;33771;48.180;11.400;2023-12-20T09:43:15;2.10;;;1.63;;
48006;SDS011;33771;48.180;11.400;2023-12-20T09:45:45;2.70;;;1.43;;
48006;SDS011;33771;48.180;11.400;2023-12-20T09:48:11;2.10;;;1.60;;
48006;SDS011;33771;48.180;11.400;2023-12-20T09:50:39;2.13;;;1.77;;
48006;SDS011;33771;48.180;11.400;2023-12-20T09:53:05;2.07;;;1.70;;
48006;SDS011;33771;48.180;11.400;2023-12-20T09:55:34;2.03;;;1.83;;
48006;SDS011;33771;48.180;11.400;2023-12-20T09:58:01;1.90;;;1.60;;
48006;SDS011;33771;48.180;11.400;2023-12-20T10:00:27;1.70;;;1.30;;
48006;SDS011;33771;48.180;11.400;2023-12-20T10:05:24;2.30;;;1.87;;
48006;SDS011;33771;48.180;11.400;2023-12-20T10:07:55;3.13;;;1.70;;
48006;SDS011;33771;48.180;11.400;2023-12-20T10:10:21;3.13;;;2.10;;
48006;SDS011;33771;48.180;11.400;2023-12-20T10:15:42;2.60;;;1.70;;
48006;SDS011;33771;48.180;11.400;2023-12-20T10:18:08;2.00;;;1.77;;
48006;SDS011;33771;48.180;11.400;2023-12-20T10:20:33;4.33;;;1.87;;
48006;SDS011;33771;48.180;11.400;2023-12-20T10:22:59;2.10;;;1.70;;
48006;SDS011;33771;48.180;11.400;2023-12-20T10:25:26;2.50;;;1.50;;
48006;SDS011;33771;48.180;11.400;2023-12-20T10:28:11;3.57;;;1.80;;
48006;SDS011;33771;48.180;11.400;2023-12-20T10:30:38;2.40;;;1.80;;
48006;SDS011;33771;48.180;11.400;2023-12-20T10:33:08;2.77;;;1.90;;
48006;SDS011;33771;48.180;11.400;2023-12-20T10:35:34;3.03;;;1.70;;
48006;SDS011;33771;48.180;11.400;2023-12-20T10:38:03;2.47;;;1.97;;
48006;SDS011;33771;48.180;11.400;2023-12-20T10:40:36;2.30;;;1.90;;
48006;SDS011;33771;48.180;11.400;2023-12-20T10:43:02;2.60;;;2.00;;
48006;SDS011;33771;48.180;11.400;2023-12-20T10:45:28;3.73;;;1.83;;
48006;SDS011;33771;48.180;11.400;2023-12-20T10:47:54;2.50;;;1.87;;
48006;SDS011;33771;48.180;11.400;2023-12-20T10:50:20;1.90;;;1.63;;
48006;SDS011;33771;48.180;11.400;2023-12-20T10:52:46;2.60;;;1.80;;
48006;SDS011;33771;48.180;11.400;2023-12-20T10:55:13;3.10;;;2.23;;
48006;SDS011;33771;48.180;11.400;2023-12-20T10:57:39;2.67;;;1.87;;
48006;SDS011;33771;48.180;11.400;2023-12-20T11:00:05;2.67;;;2.00;;
48006;SDS011;33771;48.180;11.400;2023-12-20T11:02:36;2.13;;;1.93;;
48006;SDS011;33771;48.180;11.400;2023-12-20T11:10:31;2.93;;;1.77;;
48006;SDS011;33771;48.180;11.400;2023-12-20T11:13:47;2.72;;;2.20;;
48006;SDS011;33771;48.180;11.400;2023-12-20T11:16:13;2.60;;;2.13;;
48006;SDS011;33771;48.180;11.400;2023-12-20T11:18:40;3.23;;;2.43;;
48006;SDS011;33771;48.180;11.400;2023-12-20T11:21:06;2.53;;;1.90;;
48006;SDS011;33771;48.180;11.400;2023-12-20T11:23:32;2.83;;;2.03;;
48006;SDS011;33771;48.180;11.400;2023-12-20T11:26:01;2.27;;;1.87;;
48006;SDS011;33771;48.180;11.400;2023-12-20T11:28:27;2.60;;;2.00;;
48006;SDS011;33771;48.180;11.400;2023-12-20T11:30:55;2.97;;;2.00;;
48006;SDS011;33771;48.180;11.400;2023-12-20T11:33:45;2.07;;;1.80;;
48006;SDS011;33771;48.180;11.400;2023-12-20T11:36:18;3.03;;;2.20;;
48006;SDS011;33771;48.180;11.400;2023-12-20T11:38:58;2.67;;;2.20;;
48006;SDS011;33771;48.180;11.400;2023-12-20T11:41:25;3.50;;;2.10;;
48006;SDS011;33771;48.180;11.400;2023-12-20T11:43:55;3.63;;;2.03;;
48006;SDS011;33771;48.180;11.400;2023-12-20T11:46:21;3.30;;;2.30;;
48006;SDS011;33771;48.180;11.400;2023-12-20T11:48:47;2.50;;;2.00;;
48006;SDS011;33771;48.180;11.400;2023-12-20T11:51:13;2.60;;;1.93;;
48006;SDS011;33771;48.180;11.400;2023-12-20T11:53:39;2.83;;;2.10;;
48006;SDS011;33771;48.180;11.400;2023-12-20T11:56:06;2.90;;;2.17;;
48006;SDS011;33771;48.180;11.400;2023-12-20T11:58:32;6.23;;;1.90;;
48006;SDS011;33771;48.180;11.400;2023-12-20T12:00:58;2.90;;;2.17;;
48006;SDS011;33771;48.180;11.400;2023-12-20T12:03:24;2.77;;;1.87;;
48006;SDS011;33771;48.180;11.400;2023-12-20T12:05:50;3.83;;;2.23;;
48006;SDS011;33771;48.180;11.400;2023-12-20T12:08:19;2.77;;;1.87;;
48006;SDS011;33771;48.180;11.400;2023-12-20T12:10:44;2.43;;;2.00;;
48006;SDS011;33771;48.180;11.400;2023-12-20T12:13:10;2.03;;;1.50;;
48006;SDS011;33771;48.180;11.400;2023-12-20T12:15:36;2.33;;;1.73;;
48006;SDS011;33771;48.180;11.400;2023-12-20T12:18:03;2.10;;;1.70;;
48006;SDS011;33771;48.180;11.400;2023-12-20T12:20:30;3.03;;;1.87;;
48006;SDS011;33771;48.180;11.400;2023-12-20T12:23:02;2.53;;;1.80;;
48006;SDS011;33771;48.180;11.400;2023-12-20T12:25:32;2.20;;;1.80;;
48006;SDS011;33771;48.180;11.400;2023-12-20T12:27:59;2.00;;;1.50;;
48006;SDS011;33771;48.180;11.400;2023-12-20T12:30:25;2.50;;;1.80;;
48006;SDS011;33771;48.180;11.400;2023-12-20T12:32:51;3.03;;;1.90;;
48006;SDS011;33771;48.180;11.400;2023-12-20T12:35:17;2.10;;;1.57;;
48006;SDS011;33771;48.180;11.400;2023-12-20T12:37:44;2.50;;;1.70;;
48006;SDS011;33771;48.180;11.400;2023-12-20T12:40:13;3.00;;;1.80;;
48006;SDS011;33771;48.180;11.400;2023-12-20T12:42:40;4.23;;;2.20;;
48006;SDS011;33771;48.180;11.400;2023-12-20T12:45:07;3.70;;;2.17;;
48006;SDS011;33771;48.180;11.400;2023-12-20T12:47:33;3.60;;;2.20;;
48006;SDS011;33771;48.180;11.400;2023-12-20T12:49:59;3.83;;;2.00;;
48006;SDS011;33771;48.180;11.400;2023-12-20T12:52:24;3.50;;;2.07;;
48006;SDS011;33771;48.180;11.400;2023-12-20T12:54:51;3.47;;;2.00;;
48006;SDS011;33771;48.180;11.400;2023-12-20T12:57:17;3.73;;;1.87;;
48006;SDS011;33771;48.180;11.400;2023-12-20T12:59:43;2.90;;;1.93;;
48006;SDS011;33771;48.180;11.400;2023-12-20T13:02:10;3.63;;;2.30;;
48006;SDS011;33771;48.180;11.400;2023-12-20T13:04:37;3.10;;;2.23;;
48006;SDS011;33771;48.180;11.400;2023-12-20T13:07:02;5.57;;;2.17;;
48006;SDS011;33771;48.180;11.400;2023-12-20T13:09:28;3.93;;;2.50;;
48006;SDS011;33771;48.180;11.400;2023-12-20T13:11:54;2.87;;;1.70;;
48006;SDS011;33771;48.180;11.400;2023-12-20T13:14:19;2.60;;;1.60;;
48006;SDS011;33771;48.180;11.400;2023-12-20T13:16:45;2.90;;;2.00;;
48006;SDS011;33771;48.180;11.400;2023-12-20T13:19:11;5.27;;;2.40;;
48006;SDS011;33771;48.180;11.400;2023-12-20T13:21:36;4.57;;;1.90;;
48006;SDS011;33771;48.180;11.400;2023-12-20T13:24:02;6.23;;;2.40;;
48006;SDS011;33771;48.180;11.400;2023-12-20T13:26:28;4.07;;;2.87;;
48006;SDS011;33771;48.180;11.400;2023-12-20T13:28:54;7.33;;;2.70;;
48006;SDS011;33771;48.180;11.400;2023-12-20T13:31:19;7.00;;;2.10;;
48006;SDS011;33771;48.180;11.400;2023-12-20T13:33:45;2.90;;;2.20;;
48006;SDS011;33771;48.180;11.400;2023-12-20T13:36:11;5.67;;;2.47;;
48006;SDS011;33771;48.180;11.400;2023-12-20T13:38:37;5.33;;;2.10;;
48006;SDS011;33771;48.180;11.400;2023-12-20T13:41:03;4.10;;;2.40;;
48006;SDS011;33771;48.180;11.400;2023-12-20T13:43:29;4.40;;;2.13;;
48006;SDS011;33771;48.180;11.400;2023-12-20T13:45:56;5.80;;;2.33;;
48006;SDS011;33771;48.180;11.400;2023-12-20T13:48:22;6.60;;;2.60;;
48006;SDS011;33771;48.180;11.400;2023-12-20T13:50:47;5.10;;;2.40;;
48006;SDS011;33771;48.180;11.400;2023-12-20T13:53:13;5.27;;;2.30;;
48006;SDS011;33771;48.180;11.400;2023-12-20T13:55:39;3.20;;;2.13;;
48006;SDS011;33771;48.180;11.400;2023-12-20T13:58:05;6.37;;;2.30;;
48006;SDS011;33771;48.180;11.400;2023-12-20T14:00:30;6.37;;;2.80;;
48006;SDS011;33771;48.180;11.400;2023-12-20T14:02:56;8.10;;;3.07;;
48006;SDS011;33771;48.180;11.400;2023-12-20T14:05:21;8.70;;;2.70;;
48006;SDS011;33771;48.180;11.400;2023-12-20T14:07:48;7.23;;;2.50;;
48006;SDS011;33771;48.180;11.400;2023-12-20T14:10:14;8.30;;;2.83;;
48006;SDS011;33771;48.180;11.400;2023-12-20T14:12:39;7.20;;;2.57;;
48006;SDS011;33771;48.180;11.400;2023-12-20T14:15:05;6.80;;;2.90;;
48006;SDS011;33771;48.180;11.400;2023-12-20T14:17:39;4.60;;;2.40;;
48006;SDS011;33771;48.180;11.400;2023-12-20T14:20:05;5.77;;;2.53;;
48006;SDS011;33771;48.180;11.400;2023-12-20T14:22:32;7.83;;;3.23;;
48006;SDS011;33771;48.180;11.400;2023-12-20T14:24:57;5.83;;;2.00;;
48006;SDS011;33771;48.180;11.400;2023-12-20T14:27:23;4.93;;;2.33;;
48006;SDS011;33771;48.180;11.400;2023-12-20T14:29:52;4.30;;;2.07;;
48006;SDS011;33771;48.180;11.400;2023-12-20T14:32:18;3.70;;;2.03;;
48006;SDS011;33771;48.180;11.400;2023-12-20T14:34:44;5.80;;;2.23;;
48006;SDS011;33771;48.180;11.400;2023-12-20T14:37:09;4.73;;;2.10;;
48006;SDS011;33771;48.180;11.400;2023-12-20T14:39:35;7.23;;;2.13;;